sensor_id;sensor_type;location;lat;lon;timestamp;P1;durP1;ratioP1;P2;durP2;ratioP2
8331;SDS011;4203;48.144;14.118;2023-05-13T00:01:26;7.82;;;7.18;;
8331;SDS011;4203;48.144;14.118;2023-05-13T00:03:53;7.75;;;7.05;;
8331;SDS011;4203;48.144;14.118;2023-05-13T00:06:22;7.78;;;7.07;;
8331;SDS011;4203;48.144;14.118;2023-05-13T00:08:49;8.13;;;7.32;;
8331;SDS011;4203;48.144;14.118;2023-05-13T00:11:16;7.35;;;6.78;;
8331;SDS011;4203;48.144;14.118;2023-05-13T00:13:43;7.75;;;7.15;;
8331;SDS011;4203;48.144;14.118;2023-05-13T00:16:10;7.32;;;6.72;;
8331;SDS011;4203;48.144;14.118;2023-05-13T00:18:38;6.93;;;6.43;;
8331;SDS011;4203;48.144;14.118;2023-05-13T00:21:05;6.93;;;6.32;;
8331;SDS011;4203;48.144;14.118;2023-05-13T00:23:34;6.43;;;5.93;;
8331;SDS011;4203;48.144;14.118;2023-05-13T00:26:01;6.43;;;5.93;;
8331;SDS011;4203;48.144;14.118;2023-05-13T00:28:28;7.28;;;6.65;;
8331;SDS011;4203;48.144;14.118;2023-05-13T00:30:56;6.93;;;6.40;;
8331;SDS011;4203;48.144;14.118;2023-05-13T00:33:24;6.43;;;5.82;;
8331;SDS011;4203;48.144;14.118;2023-05-13T00:35:51;6.30;;;5.75;;
8331;SDS011;4203;48.144;14.118;2023-05-13T00:38:19;5.45;;;5.05;;
8331;SDS011;4203;48.144;14.118;2023-05-13T00:40:52;6.55;;;5.90;;
8331;SDS011;4203;48.144;14.118;2023-05-13T00:43:22;6.30;;;5.70;;
8331;SDS011;4203;48.144;14.118;2023-05-13T00:45:54;5.95;;;5.50;;
8331;SDS011;4203;48.144;14.118;2023-05-13T00:48:21;5.85;;;5.35;;
8331;SDS011;4203;48.144;14.118;2023-05-13T00:50:49;5.80;;;5.32;;
8331;SDS011;4203;48.144;14.118;2023-05-13T00:53:16;5.73;;;5.33;;
8331;SDS011;4203;48.144;14.118;2023-05-13T00:55:44;5.30;;;4.88;;
8331;SDS011;4203;48.144;14.118;2023-05-13T00:58:13;5.78;;;5.38;;
8331;SDS011;4203;48.144;14.118;2023-05-13T01:00:45;4.87;;;4.57;;
8331;SDS011;4203;48.144;14.118;2023-05-13T01:03:18;5.20;;;4.80;;
8331;SDS011;4203;48.144;14.118;2023-05-13T01:05:54;5.10;;;4.80;;
8331;SDS011;4203;48.144;14.118;2023-05-13T01:08:31;5.82;;;5.43;;
8331;SDS011;4203;48.144;14.118;2023-05-13T01:11:06;5.53;;;5.03;;
8331;SDS011;4203;48.144;14.118;2023-05-13T01:13:41;5.85;;;5.45;;
8331;SDS011;4203;48.144;14.118;2023-05-13T01:16:13;5.07;;;4.78;;
8331;SDS011;4203;48.144;14.118;2023-05-13T01:18:44;5.65;;;5.25;;
8331;SDS011;4203;48.144;14.118;2023-05-13T01:21:15;5.57;;;5.18;;
8331;SDS011;4203;48.144;14.118;2023-05-13T01:23:43;5.57;;;5.22;;
8331;SDS011;4203;48.144;14.118;2023-05-13T01:26:10;5.53;;;5.13;;
8331;SDS011;4203;48.144;14.118;2023-05-13T01:28:37;5.22;;;4.88;;
8331;SDS011;4203;48.144;14.118;2023-05-13T01:31:05;5.07;;;4.78;;
8331;SDS011;4203;48.144;14.118;2023-05-13T01:33:34;4.90;;;4.60;;
8331;SDS011;4203;48.144;14.118;2023-05-13T01:36:02;5.65;;;5.25;;
8331;SDS011;4203;48.144;14.118;2023-05-13T01:38:31;5.88;;;5.47;;
8331;SDS011;4203;48.144;14.118;2023-05-13T01:41:12;5.35;;;5.05;;
8331;SDS011;4203;48.144;14.118;2023-05-13T01:43:41;5.57;;;5.10;;
8331;SDS011;4203;48.144;14.118;2023-05-13T01:46:11;5.45;;;5.05;;
8331;SDS011;4203;48.144;14.118;2023-05-13T01:48:39;4.97;;;4.68;;
8331;SDS011;4203;48.144;14.118;2023-05-13T01:51:16;5.68;;;5.28;;
8331;SDS011;4203;48.144;14.118;2023-05-13T01:53:43;5.50;;;5.10;;
8331;SDS011;4203;48.144;14.118;2023-05-13T01:56:12;5.28;;;4.88;;
8331;SDS011;4203;48.144;14.118;2023-05-13T01:58:39;5.05;;;4.75;;
8331;SDS011;4203;48.144;14.118;2023-05-13T02:01:07;5.88;;;5.47;;
8331;SDS011;4203;48.144;14.118;2023-05-13T02:03:34;5.43;;;5.03;;
8331;SDS011;4203;48.144;14.118;2023-05-13T02:06:02;5.15;;;4.85;;
8331;SDS011;4203;48.144;14.118;2023-05-13T02:08:30;5.65;;;5.25;;
8331;SDS011;4203;48.144;14.118;2023-05-13T02:10:57;5.63;;;5.22;;
8331;SDS011;4203;48.144;14.118;2023-05-13T02:13:26;5.35;;;4.97;;
8331;SDS011;4203;48.144;14.118;2023-05-13T02:15:53;5.82;;;5.32;;
8331;SDS011;4203;48.144;14.118;2023-05-13T02:18:21;5.50;;;5.10;;
8331;SDS011;4203;48.144;14.118;2023-05-13T02:20:49;5.60;;;5.10;;
8331;SDS011;4203;48.144;14.118;2023-05-13T02:23:16;5.60;;;5.18;;
8331;SDS011;4203;48.144;14.118;2023-05-13T02:25:43;4.75;;;4.45;;
8331;SDS011;4203;48.144;14.118;2023-05-13T02:28:11;8.63;;;5.43;;
8331;SDS011;4203;48.144;14.118;2023-05-13T02:30:40;6.00;;;5.60;;
8331;SDS011;4203;48.144;14.118;2023-05-13T02:33:07;5.90;;;5.50;;
8331;SDS011;4203;48.144;14.118;2023-05-13T02:35:36;5.30;;;4.88;;
8331;SDS011;4203;48.144;14.118;2023-05-13T02:38:04;6.00;;;5.60;;
8331;SDS011;4203;48.144;14.118;2023-05-13T02:40:36;6.30;;;5.80;;
8331;SDS011;4203;48.144;14.118;2023-05-13T02:43:03;6.13;;;5.70;;
8331;SDS011;4203;48.144;14.118;2023-05-13T02:45:31;5.88;;;5.38;;
8331;SDS011;4203;48.144;14.118;2023-05-13T02:48:00;5.72;;;5.32;;
8331;SDS011;4203;48.144;14.118;2023-05-13T02:50:27;6.40;;;5.95;;
8331;SDS011;4203;48.144;14.118;2023-05-13T02:52:55;5.45;;;5.05;;
8331;SDS011;4203;48.144;14.118;2023-05-13T02:55:23;5.38;;;4.97;;
8331;SDS011;4203;48.144;14.118;2023-05-13T02:57:51;5.72;;;5.32;;
8331;SDS011;4203;48.144;14.118;2023-05-13T03:00:19;4.93;;;4.63;;
8331;SDS011;4203;48.144;14.118;2023-05-13T03:02:46;5.13;;;4.80;;
8331;SDS011;4203;48.144;14.118;2023-05-13T03:05:16;5.32;;;4.93;;
8331;SDS011;4203;48.144;14.118;2023-05-13T03:07:43;5.70;;;5.20;;
8331;SDS011;4203;48.144;14.118;2023-05-13T03:10:11;5.00;;;4.70;;
8331;SDS011;4203;48.144;14.118;2023-05-13T03:12:38;5.10;;;4.80;;
8331;SDS011;4203;48.144;14.118;2023-05-13T03:15:07;5.53;;;5.13;;
8331;SDS011;4203;48.144;14.118;2023-05-13T03:17:35;5.07;;;4.67;;
8331;SDS011;4203;48.144;14.118;2023-05-13T03:20:07;5.30;;;4.97;;
8331;SDS011;4203;48.144;14.118;2023-05-13T03:22:37;4.95;;;4.63;;
8331;SDS011;4203;48.144;14.118;2023-05-13T03:25:05;5.10;;;4.70;;
8331;SDS011;4203;48.144;14.118;2023-05-13T03:27:33;5.18;;;4.78;;
8331;SDS011;4203;48.144;14.118;2023-05-13T03:30:02;4.90;;;4.50;;
8331;SDS011;4203;48.144;14.118;2023-05-13T03:32:29;4.97;;;4.65;;
8331;SDS011;4203;48.144;14.118;2023-05-13T03:34:56;4.70;;;4.40;;
8331;SDS011;4203;48.144;14.118;2023-05-13T03:37:25;5.15;;;4.80;;
8331;SDS011;4203;48.144;14.118;2023-05-13T03:39:54;5.22;;;4.82;;
8331;SDS011;4203;48.144;14.118;2023-05-13T03:42:21;5.43;;;5.03;;
8331;SDS011;4203;48.144;14.118;2023-05-13T03:44:49;5.00;;;4.70;;
8331;SDS011;4203;48.144;14.118;2023-05-13T03:47:16;5.35;;;4.95;;
8331;SDS011;4203;48.144;14.118;2023-05-13T03:49:43;5.30;;;4.90;;
8331;SDS011;4203;48.144;14.118;2023-05-13T03:52:12;4.95;;;4.55;;
8331;SDS011;4203;48.144;14.118;2023-05-13T03:54:39;5.60;;;5.20;;
8331;SDS011;4203;48.144;14.118;2023-05-13T03:57:08;5.32;;;4.95;;
8331;SDS011;4203;48.144;14.118;2023-05-13T03:59:35;5.57;;;5.18;;
8331;SDS011;4203;48.144;14.118;2023-05-13T04:02:02;4.97;;;4.55;;
8331;SDS011;4203;48.144;14.118;2023-05-13T04:04:33;5.43;;;5.03;;
8331;SDS011;4203;48.144;14.118;2023-05-13T04:07:02;5.60;;;5.20;;
8331;SDS011;4203;48.144;14.118;2023-05-13T04:09:42;5.50;;;5.10;;
8331;SDS011;4203;48.144;14.118;2023-05-13T04:12:15;5.70;;;4.90;;
8331;SDS011;4203;48.144;14.118;2023-05-13T04:14:43;5.15;;;4.78;;
8331;SDS011;4203;48.144;14.118;2023-05-13T04:17:12;4.97;;;4.67;;
8331;SDS011;4203;48.144;14.118;2023-05-13T04:19:53;5.43;;;5.03;;
8331;SDS011;4203;48.144;14.118;2023-05-13T04:22:23;5.10;;;4.70;;
8331;SDS011;4203;48.144;14.118;2023-05-13T04:24:50;5.68;;;5.18;;
8331;SDS011;4203;48.144;14.118;2023-05-13T04:27:22;5.32;;;4.93;;
8331;SDS011;4203;48.144;14.118;2023-05-13T04:29:59;4.55;;;4.25;;
8331;SDS011;4203;48.144;14.118;2023-05-13T04:32:27;4.50;;;4.22;;
8331;SDS011;4203;48.144;14.118;2023-05-13T04:34:54;4.70;;;4.40;;
8331;SDS011;4203;48.144;14.118;2023-05-13T04:37:21;4.65;;;4.32;;
8331;SDS011;4203;48.144;14.118;2023-05-13T04:39:50;4.55;;;4.25;;
8331;SDS011;4203;48.144;14.118;2023-05-13T04:42:17;4.47;;;4.20;;
8331;SDS011;4203;48.144;14.118;2023-05-13T04:44:46;4.60;;;4.30;;
8331;SDS011;4203;48.144;14.118;2023-05-13T04:47:13;4.72;;;4.15;;
8331;SDS011;4203;48.144;14.118;2023-05-13T04:49:41;4.20;;;3.90;;
8331;SDS011;4203;48.144;14.118;2023-05-13T04:52:09;4.00;;;3.78;;
8331;SDS011;4203;48.144;14.118;2023-05-13T04:54:37;4.40;;;4.10;;
8331;SDS011;4203;48.144;14.118;2023-05-13T04:57:04;3.97;;;3.78;;
8331;SDS011;4203;48.144;14.118;2023-05-13T04:59:32;3.53;;;3.33;;
8331;SDS011;4203;48.144;14.118;2023-05-13T05:02:01;4.25;;;4.00;;
8331;SDS011;4203;48.144;14.118;2023-05-13T05:04:28;3.63;;;3.42;;
8331;SDS011;4203;48.144;14.118;2023-05-13T05:06:55;3.40;;;3.30;;
8331;SDS011;4203;48.144;14.118;2023-05-13T05:09:23;3.47;;;3.28;;
8331;SDS011;4203;48.144;14.118;2023-05-13T05:11:50;3.67;;;3.47;;
8331;SDS011;4203;48.144;14.118;2023-05-13T05:14:18;3.58;;;3.38;;
8331;SDS011;4203;48.144;14.118;2023-05-13T05:16:45;3.20;;;3.10;;
8331;SDS011;4203;48.144;14.118;2023-05-13T05:19:14;3.40;;;3.20;;
8331;SDS011;4203;48.144;14.118;2023-05-13T05:21:42;3.25;;;3.15;;
8331;SDS011;4203;48.144;14.118;2023-05-13T05:24:09;3.58;;;3.38;;
8331;SDS011;4203;48.144;14.118;2023-05-13T05:26:36;4.28;;;3.38;;
8331;SDS011;4203;48.144;14.118;2023-05-13T05:29:05;3.15;;;3.03;;
8331;SDS011;4203;48.144;14.118;2023-05-13T05:31:32;3.58;;;3.38;;
8331;SDS011;4203;48.144;14.118;2023-05-13T05:34:00;3.53;;;3.33;;
8331;SDS011;4203;48.144;14.118;2023-05-13T05:36:29;3.03;;;2.92;;
8331;SDS011;4203;48.144;14.118;2023-05-13T05:38:56;3.60;;;3.40;;
8331;SDS011;4203;48.144;14.118;2023-05-13T05:41:23;3.22;;;3.03;;
8331;SDS011;4203;48.144;14.118;2023-05-13T05:43:51;3.53;;;3.33;;
8331;SDS011;4203;48.144;14.118;2023-05-13T05:46:18;3.30;;;3.17;;
8331;SDS011;4203;48.144;14.118;2023-05-13T05:48:46;3.47;;;3.28;;
8331;SDS011;4203;48.144;14.118;2023-05-13T05:51:14;3.25;;;3.00;;
8331;SDS011;4203;48.144;14.118;2023-05-13T05:53:42;3.40;;;3.20;;
8331;SDS011;4203;48.144;14.118;2023-05-13T05:56:10;3.45;;;3.15;;
8331;SDS011;4203;48.144;14.118;2023-05-13T05:58:37;3.20;;;3.10;;
8331;SDS011;4203;48.144;14.118;2023-05-13T06:01:04;3.17;;;2.97;;
8331;SDS011;4203;48.144;14.118;2023-05-13T06:03:32;3.35;;;3.15;;
8331;SDS011;4203;48.144;14.118;2023-05-13T06:06:00;3.47;;;3.10;;
8331;SDS011;4203;48.144;14.118;2023-05-13T06:08:27;3.30;;;3.20;;
8331;SDS011;4203;48.144;14.118;2023-05-13T06:10:56;3.45;;;3.25;;
8331;SDS011;4203;48.144;14.118;2023-05-13T06:13:24;3.60;;;3.40;;
8331;SDS011;4203;48.144;14.118;2023-05-13T06:15:51;3.33;;;3.13;;
8331;SDS011;4203;48.144;14.118;2023-05-13T06:18:18;3.70;;;3.40;;
8331;SDS011;4203;48.144;14.118;2023-05-13T06:20:47;3.35;;;3.15;;
8331;SDS011;4203;48.144;14.118;2023-05-13T06:23:14;3.20;;;3.00;;
8331;SDS011;4203;48.144;14.118;2023-05-13T06:25:42;3.42;;;3.22;;
8331;SDS011;4203;48.144;14.118;2023-05-13T06:28:10;3.38;;;3.17;;
8331;SDS011;4203;48.144;14.118;2023-05-13T06:30:38;3.75;;;3.55;;
8331;SDS011;4203;48.144;14.118;2023-05-13T06:33:05;3.58;;;3.38;;
8331;SDS011;4203;48.144;14.118;2023-05-13T06:35:34;3.25;;;3.05;;
8331;SDS011;4203;48.144;14.118;2023-05-13T06:38:02;3.30;;;3.10;;
8331;SDS011;4203;48.144;14.118;2023-05-13T06:40:38;3.80;;;3.30;;
8331;SDS011;4203;48.144;14.118;2023-05-13T06:43:05;3.40;;;3.20;;
8331;SDS011;4203;48.144;14.118;2023-05-13T06:45:34;6.47;;;3.10;;
8331;SDS011;4203;48.144;14.118;2023-05-13T06:48:05;3.38;;;3.17;;
8331;SDS011;4203;48.144;14.118;2023-05-13T06:53:03;4.03;;;3.53;;
8331;SDS011;4203;48.144;14.118;2023-05-13T06:55:31;3.80;;;3.50;;
8331;SDS011;4203;48.144;14.118;2023-05-13T06:58:06;3.67;;;3.47;;
8331;SDS011;4203;48.144;14.118;2023-05-13T07:00:48;3.20;;;3.00;;
8331;SDS011;4203;48.144;14.118;2023-05-13T07:03:18;2.70;;;2.60;;
8331;SDS011;4203;48.144;14.118;2023-05-13T07:05:45;3.45;;;3.25;;
8331;SDS011;4203;48.144;14.118;2023-05-13T07:08:13;3.25;;;3.10;;
8331;SDS011;4203;48.144;14.118;2023-05-13T07:10:42;2.92;;;2.83;;
8331;SDS011;4203;48.144;14.118;2023-05-13T07:13:09;3.30;;;3.10;;
8331;SDS011;4203;48.144;14.118;2023-05-13T07:15:37;3.53;;;3.33;;
8331;SDS011;4203;48.144;14.118;2023-05-13T07:18:05;2.92;;;2.83;;
8331;SDS011;4203;48.144;14.118;2023-05-13T07:20:33;3.35;;;3.10;;
8331;SDS011;4203;48.144;14.118;2023-05-13T07:23:01;3.28;;;3.08;;
8331;SDS011;4203;48.144;14.118;2023-05-13T07:25:28;2.90;;;2.80;;
8331;SDS011;4203;48.144;14.118;2023-05-13T07:27:55;2.88;;;2.78;;
8331;SDS011;4203;48.144;14.118;2023-05-13T07:30:24;2.83;;;2.72;;
8331;SDS011;4203;48.144;14.118;2023-05-13T07:32:51;2.78;;;2.58;;
8331;SDS011;4203;48.144;14.118;2023-05-13T07:35:20;3.00;;;2.90;;
8331;SDS011;4203;48.144;14.118;2023-05-13T07:37:47;3.42;;;3.22;;
8331;SDS011;4203;48.144;14.118;2023-05-13T07:40:16;3.40;;;3.20;;
8331;SDS011;4203;48.144;14.118;2023-05-13T07:42:44;3.35;;;3.15;;
8331;SDS011;4203;48.144;14.118;2023-05-13T07:45:12;3.15;;;2.95;;
8331;SDS011;4203;48.144;14.118;2023-05-13T07:47:39;3.33;;;3.13;;
8331;SDS011;4203;48.144;14.118;2023-05-13T07:50:06;3.55;;;3.25;;
8331;SDS011;4203;48.144;14.118;2023-05-13T07:52:35;3.05;;;2.85;;
8331;SDS011;4203;48.144;14.118;2023-05-13T07:55:03;2.47;;;2.38;;
8331;SDS011;4203;48.144;14.118;2023-05-13T07:57:32;2.85;;;2.75;;
8331;SDS011;4203;48.144;14.118;2023-05-13T08:03:03;3.15;;;2.97;;
8331;SDS011;4203;48.144;14.118;2023-05-13T08:05:33;2.78;;;2.67;;
8331;SDS011;4203;48.144;14.118;2023-05-13T08:08:02;2.88;;;2.67;;
8331;SDS011;4203;48.144;14.118;2023-05-13T08:10:32;2.90;;;2.70;;
8331;SDS011;4203;48.144;14.118;2023-05-13T08:12:59;2.63;;;2.53;;
8331;SDS011;4203;48.144;14.118;2023-05-13T08:15:27;2.92;;;2.83;;
8331;SDS011;4203;48.144;14.118;2023-05-13T08:17:54;2.70;;;2.60;;
8331;SDS011;4203;48.144;14.118;2023-05-13T08:20:23;2.72;;;2.63;;
8331;SDS011;4203;48.144;14.118;2023-05-13T08:22:54;2.75;;;2.65;;
8331;SDS011;4203;48.144;14.118;2023-05-13T08:25:23;3.08;;;2.88;;
8331;SDS011;4203;48.144;14.118;2023-05-13T08:27:51;2.70;;;2.60;;
8331;SDS011;4203;48.144;14.118;2023-05-13T08:30:18;2.95;;;2.85;;
8331;SDS011;4203;48.144;14.118;2023-05-13T08:32:45;3.15;;;2.95;;
8331;SDS011;4203;48.144;14.118;2023-05-13T08:35:12;2.60;;;2.50;;
8331;SDS011;4203;48.144;14.118;2023-05-13T08:37:40;2.60;;;2.50;;
8331;SDS011;4203;48.144;14.118;2023-05-13T08:40:09;2.50;;;2.40;;
8331;SDS011;4203;48.144;14.118;2023-05-13T08:42:39;2.55;;;2.45;;
8331;SDS011;4203;48.144;14.118;2023-05-13T08:45:08;2.50;;;2.40;;
8331;SDS011;4203;48.144;14.118;2023-05-13T08:47:38;2.72;;;2.53;;
8331;SDS011;4203;48.144;14.118;2023-05-13T08:52:56;2.95;;;2.80;;
8331;SDS011;4203;48.144;14.118;2023-05-13T08:55:24;2.92;;;2.78;;
8331;SDS011;4203;48.144;14.118;2023-05-13T08:57:53;2.97;;;2.78;;
8331;SDS011;4203;48.144;14.118;2023-05-13T09:00:22;2.45;;;2.35;;
8331;SDS011;4203;48.144;14.118;2023-05-13T09:02:49;2.78;;;2.58;;
8331;SDS011;4203;48.144;14.118;2023-05-13T09:05:17;3.72;;;2.60;;
8331;SDS011;4203;48.144;14.118;2023-05-13T09:07:45;2.35;;;2.25;;
8331;SDS011;4203;48.144;14.118;2023-05-13T09:10:13;2.92;;;2.72;;
8331;SDS011;4203;48.144;14.118;2023-05-13T09:12:47;3.20;;;2.60;;
8331;SDS011;4203;48.144;14.118;2023-05-13T09:15:17;2.25;;;2.15;;
8331;SDS011;4203;48.144;14.118;2023-05-13T09:17:47;2.40;;;2.30;;
8331;SDS011;4203;48.144;14.118;2023-05-13T09:20:16;2.45;;;2.28;;
8331;SDS011;4203;48.144;14.118;2023-05-13T09:22:45;2.30;;;2.20;;
8331;SDS011;4203;48.144;14.118;2023-05-13T09:25:13;2.45;;;2.35;;
8331;SDS011;4203;48.144;14.118;2023-05-13T09:27:42;2.75;;;2.65;;
8331;SDS011;4203;48.144;14.118;2023-05-13T09:30:13;2.47;;;2.38;;
8331;SDS011;4203;48.144;14.118;2023-05-13T09:32:42;2.78;;;2.58;;
8331;SDS011;4203;48.144;14.118;2023-05-13T09:35:10;3.28;;;3.00;;
8331;SDS011;4203;48.144;14.118;2023-05-13T09:37:41;2.75;;;2.65;;
8331;SDS011;4203;48.144;14.118;2023-05-13T09:40:13;2.80;;;2.65;;
8331;SDS011;4203;48.144;14.118;2023-05-13T09:42:42;3.03;;;2.92;;
8331;SDS011;4203;48.144;14.118;2023-05-13T09:45:11;2.60;;;2.50;;
8331;SDS011;4203;48.144;14.118;2023-05-13T09:47:39;3.05;;;2.95;;
8331;SDS011;4203;48.144;14.118;2023-05-13T09:50:10;3.30;;;3.10;;
8331;SDS011;4203;48.144;14.118;2023-05-13T09:52:37;2.90;;;2.80;;
8331;SDS011;4203;48.144;14.118;2023-05-13T09:55:07;3.03;;;2.83;;
8331;SDS011;4203;48.144;14.118;2023-05-13T09:57:34;4.30;;;2.95;;
8331;SDS011;4203;48.144;14.118;2023-05-13T10:00:03;3.10;;;3.00;;
8331;SDS011;4203;48.144;14.118;2023-05-13T10:02:34;3.80;;;3.60;;
8331;SDS011;4203;48.144;14.118;2023-05-13T10:05:02;2.90;;;2.70;;
8331;SDS011;4203;48.144;14.118;2023-05-13T10:07:34;3.45;;;3.25;;
8331;SDS011;4203;48.144;14.118;2023-05-13T10:10:02;3.60;;;3.40;;
8331;SDS011;4203;48.144;14.118;2023-05-13T10:12:32;3.60;;;3.40;;
8331;SDS011;4203;48.144;14.118;2023-05-13T10:15:04;4.43;;;3.97;;
8331;SDS011;4203;48.144;14.118;2023-05-13T10:17:32;3.88;;;3.67;;
8331;SDS011;4203;48.144;14.118;2023-05-13T10:20:00;4.13;;;3.92;;
8331;SDS011;4203;48.144;14.118;2023-05-13T10:22:30;4.00;;;3.78;;
8331;SDS011;4203;48.144;14.118;2023-05-13T10:24:59;4.32;;;3.95;;
8331;SDS011;4203;48.144;14.118;2023-05-13T10:27:28;4.53;;;4.22;;
8331;SDS011;4203;48.144;14.118;2023-05-13T10:29:57;4.18;;;3.95;;
8331;SDS011;4203;48.144;14.118;2023-05-13T10:32:26;4.80;;;4.50;;
8331;SDS011;4203;48.144;14.118;2023-05-13T10:34:56;3.78;;;3.53;;
8331;SDS011;4203;48.144;14.118;2023-05-13T10:40:24;4.38;;;4.07;;
8331;SDS011;4203;48.144;14.118;2023-05-13T10:43:08;4.22;;;4.00;;
8331;SDS011;4203;48.144;14.118;2023-05-13T10:45:38;4.00;;;3.80;;
8331;SDS011;4203;48.144;14.118;2023-05-13T10:48:10;4.82;;;4.43;;
8331;SDS011;4203;48.144;14.118;2023-05-13T10:50:38;3.97;;;3.78;;
8331;SDS011;4203;48.144;14.118;2023-05-13T10:53:18;4.78;;;4.40;;
8331;SDS011;4203;48.144;14.118;2023-05-13T10:55:51;5.07;;;4.38;;
8331;SDS011;4203;48.144;14.118;2023-05-13T10:58:19;4.18;;;3.90;;
8331;SDS011;4203;48.144;14.118;2023-05-13T11:00:49;5.03;;;4.55;;
8331;SDS011;4203;48.144;14.118;2023-05-13T11:03:27;4.10;;;3.90;;
8331;SDS011;4203;48.144;14.118;2023-05-13T11:05:59;4.50;;;4.20;;
8331;SDS011;4203;48.144;14.118;2023-05-13T11:08:41;4.78;;;4.47;;
8331;SDS011;4203;48.144;14.118;2023-05-13T11:11:25;5.05;;;4.60;;
8331;SDS011;4203;48.144;14.118;2023-05-13T11:14:15;4.80;;;4.22;;
8331;SDS011;4203;48.144;14.118;2023-05-13T11:16:45;5.55;;;4.57;;
8331;SDS011;4203;48.144;14.118;2023-05-13T11:19:20;4.82;;;4.30;;
8331;SDS011;4203;48.144;14.118;2023-05-13T11:21:52;3.88;;;3.58;;
8331;SDS011;4203;48.144;14.118;2023-05-13T11:24:21;4.35;;;4.10;;
8331;SDS011;4203;48.144;14.118;2023-05-13T11:26:50;4.97;;;4.22;;
8331;SDS011;4203;48.144;14.118;2023-05-13T11:29:28;4.50;;;4.20;;
8331;SDS011;4203;48.144;14.118;2023-05-13T11:31:56;4.18;;;3.75;;
8331;SDS011;4203;48.144;14.118;2023-05-13T11:34:24;4.13;;;3.83;;
8331;SDS011;4203;48.144;14.118;2023-05-13T11:36:57;4.07;;;3.78;;
8331;SDS011;4203;48.144;14.118;2023-05-13T11:39:39;4.32;;;4.00;;
8331;SDS011;4203;48.144;14.118;2023-05-13T11:42:07;5.28;;;4.88;;
8331;SDS011;4203;48.144;14.118;2023-05-13T11:44:43;5.88;;;5.25;;
8331;SDS011;4203;48.144;14.118;2023-05-13T11:47:24;5.45;;;5.05;;
8331;SDS011;4203;48.144;14.118;2023-05-13T11:49:56;5.85;;;5.25;;
8331;SDS011;4203;48.144;14.118;2023-05-13T11:52:32;6.50;;;6.00;;
8331;SDS011;4203;48.144;14.118;2023-05-13T11:55:00;7.25;;;5.97;;
8331;SDS011;4203;48.144;14.118;2023-05-13T11:57:28;5.25;;;4.85;;
8331;SDS011;4203;48.144;14.118;2023-05-13T11:59:59;5.50;;;5.00;;
8331;SDS011;4203;48.144;14.118;2023-05-13T12:02:29;6.13;;;5.63;;
8331;SDS011;4203;48.144;14.118;2023-05-13T12:04:59;6.18;;;5.68;;
8331;SDS011;4203;48.144;14.118;2023-05-13T12:07:28;7.68;;;6.85;;
8331;SDS011;4203;48.144;14.118;2023-05-13T12:09:56;6.35;;;5.72;;
8331;SDS011;4203;48.144;14.118;2023-05-13T12:12:26;5.57;;;5.15;;
8331;SDS011;4203;48.144;14.118;2023-05-13T12:14:55;5.25;;;4.78;;
8331;SDS011;4203;48.144;14.118;2023-05-13T12:17:25;5.18;;;4.78;;
8331;SDS011;4203;48.144;14.118;2023-05-13T12:22:50;5.60;;;5.20;;
8331;SDS011;4203;48.144;14.118;2023-05-13T12:25:43;5.75;;;5.25;;
8331;SDS011;4203;48.144;14.118;2023-05-13T12:28:14;6.45;;;5.85;;
8331;SDS011;4203;48.144;14.118;2023-05-13T12:30:43;5.45;;;4.97;;
8331;SDS011;4203;48.144;14.118;2023-05-13T12:33:15;5.68;;;5.28;;
8331;SDS011;4203;48.144;14.118;2023-05-13T12:35:45;5.47;;;4.97;;
8331;SDS011;4203;48.144;14.118;2023-05-13T12:38:14;5.63;;;5.18;;
8331;SDS011;4203;48.144;14.118;2023-05-13T12:40:44;5.82;;;5.43;;
8331;SDS011;4203;48.144;14.118;2023-05-13T12:43:14;5.53;;;5.03;;
8331;SDS011;4203;48.144;14.118;2023-05-13T12:45:42;5.55;;;5.15;;
8331;SDS011;4203;48.144;14.118;2023-05-13T12:48:10;5.28;;;4.88;;
8331;SDS011;4203;48.144;14.118;2023-05-13T12:50:38;5.75;;;5.35;;
8331;SDS011;4203;48.144;14.118;2023-05-13T12:53:05;5.38;;;4.97;;
8331;SDS011;4203;48.144;14.118;2023-05-13T12:55:32;6.55;;;6.00;;
8331;SDS011;4203;48.144;14.118;2023-05-13T12:58:03;6.20;;;5.65;;
8331;SDS011;4203;48.144;14.118;2023-05-13T13:00:36;6.88;;;6.28;;
8331;SDS011;4203;48.144;14.118;2023-05-13T13:03:03;6.97;;;6.28;;
8331;SDS011;4203;48.144;14.118;2023-05-13T13:05:31;6.18;;;5.70;;
8331;SDS011;4203;48.144;14.118;2023-05-13T13:07:58;5.70;;;5.30;;
8331;SDS011;4203;48.144;14.118;2023-05-13T13:10:26;7.53;;;6.32;;
8331;SDS011;4203;48.144;14.118;2023-05-13T13:12:54;6.60;;;6.03;;
8331;SDS011;4203;48.144;14.118;2023-05-13T13:15:21;7.88;;;5.40;;
8331;SDS011;4203;48.144;14.118;2023-05-13T13:17:49;5.93;;;5.43;;
8331;SDS011;4203;48.144;14.118;2023-05-13T13:20:18;5.88;;;5.45;;
8331;SDS011;4203;48.144;14.118;2023-05-13T13:22:46;6.13;;;5.53;;
8331;SDS011;4203;48.144;14.118;2023-05-13T13:25:25;6.03;;;5.53;;
8331;SDS011;4203;48.144;14.118;2023-05-13T13:27:53;6.70;;;6.13;;
8331;SDS011;4203;48.144;14.118;2023-05-13T13:30:20;6.10;;;5.65;;
8331;SDS011;4203;48.144;14.118;2023-05-13T13:32:47;6.25;;;5.65;;
8331;SDS011;4203;48.144;14.118;2023-05-13T13:35:16;7.90;;;5.82;;
8331;SDS011;4203;48.144;14.118;2023-05-13T13:37:43;9.88;;;6.05;;
8331;SDS011;4203;48.144;14.118;2023-05-13T13:40:11;6.18;;;5.63;;
8331;SDS011;4203;48.144;14.118;2023-05-13T13:42:39;5.10;;;4.70;;
8331;SDS011;4203;48.144;14.118;2023-05-13T13:45:06;5.30;;;4.90;;
8331;SDS011;4203;48.144;14.118;2023-05-13T13:47:35;5.47;;;4.88;;
8331;SDS011;4203;48.144;14.118;2023-05-13T13:50:04;6.10;;;5.60;;
8331;SDS011;4203;48.144;14.118;2023-05-13T13:52:32;6.60;;;5.50;;
8331;SDS011;4203;48.144;14.118;2023-05-13T13:54:59;6.22;;;5.72;;
8331;SDS011;4203;48.144;14.118;2023-05-13T13:57:27;6.45;;;5.95;;
8331;SDS011;4203;48.144;14.118;2023-05-13T13:59:54;9.73;;;6.20;;
8331;SDS011;4203;48.144;14.118;2023-05-13T14:02:21;6.90;;;6.30;;
8331;SDS011;4203;48.144;14.118;2023-05-13T14:04:49;6.53;;;6.03;;
8331;SDS011;4203;48.144;14.118;2023-05-13T14:07:21;5.70;;;5.28;;
8331;SDS011;4203;48.144;14.118;2023-05-13T14:09:49;5.65;;;5.15;;
8331;SDS011;4203;48.144;14.118;2023-05-13T14:12:17;5.60;;;5.03;;
8331;SDS011;4203;48.144;14.118;2023-05-13T14:14:45;6.47;;;5.93;;
8331;SDS011;4203;48.144;14.118;2023-05-13T14:17:12;5.55;;;5.15;;
8331;SDS011;4203;48.144;14.118;2023-05-13T14:19:40;5.70;;;5.20;;
8331;SDS011;4203;48.144;14.118;2023-05-13T14:22:08;6.03;;;5.53;;
8331;SDS011;4203;48.144;14.118;2023-05-13T14:24:39;6.07;;;5.57;;
8331;SDS011;4203;48.144;14.118;2023-05-13T14:27:10;6.20;;;5.70;;
8331;SDS011;4203;48.144;14.118;2023-05-13T14:29:47;6.45;;;5.63;;
8331;SDS011;4203;48.144;14.118;2023-05-13T14:32:23;6.97;;;5.63;;
8331;SDS011;4203;48.144;14.118;2023-05-13T14:34:51;5.78;;;5.38;;
8331;SDS011;4203;48.144;14.118;2023-05-13T14:37:26;5.65;;;5.25;;
8331;SDS011;4203;48.144;14.118;2023-05-13T14:40:17;5.68;;;5.18;;
8331;SDS011;4203;48.144;14.118;2023-05-13T14:42:45;6.18;;;5.68;;
8331;SDS011;4203;48.144;14.118;2023-05-13T14:45:14;5.97;;;5.55;;
8331;SDS011;4203;48.144;14.118;2023-05-13T14:51:09;6.55;;;5.97;;
8331;SDS011;4203;48.144;14.118;2023-05-13T14:54:25;6.28;;;5.78;;
8331;SDS011;4203;48.144;14.118;2023-05-13T14:57:17;6.18;;;5.57;;
8331;SDS011;4203;48.144;14.118;2023-05-13T14:59:45;7.38;;;6.75;;
8331;SDS011;4203;48.144;14.118;2023-05-13T15:02:13;7.28;;;6.68;;
8331;SDS011;4203;48.144;14.118;2023-05-13T15:04:41;6.88;;;6.18;;
8331;SDS011;4203;48.144;14.118;2023-05-13T15:07:09;6.57;;;5.97;;
8331;SDS011;4203;48.144;14.118;2023-05-13T15:09:37;6.70;;;6.10;;
8331;SDS011;4203;48.144;14.118;2023-05-13T15:12:05;6.80;;;6.10;;
8331;SDS011;4203;48.144;14.118;2023-05-13T15:14:35;6.85;;;6.25;;
8331;SDS011;4203;48.144;14.118;2023-05-13T15:17:03;6.78;;;6.18;;
8331;SDS011;4203;48.144;14.118;2023-05-13T15:19:39;7.40;;;6.70;;
8331;SDS011;4203;48.144;14.118;2023-05-13T15:22:15;6.93;;;6.32;;
8331;SDS011;4203;48.144;14.118;2023-05-13T15:24:43;7.20;;;6.57;;
8331;SDS011;4203;48.144;14.118;2023-05-13T15:27:11;6.80;;;6.20;;
8331;SDS011;4203;48.144;14.118;2023-05-13T15:32:28;6.63;;;6.03;;
8331;SDS011;4203;48.144;14.118;2023-05-13T15:34:55;6.75;;;6.07;;